sensor_id;sensor_type;location;lat;lon;timestamp;P1;durP1;ratioP1;P2;durP2;ratioP2
59052;SDS011;44843;44.728;10.396;2022-09-09T00:00:23;14.27;;;8.57;;
59052;SDS011;44843;44.728;10.396;2022-09-09T00:07:52;12.43;;;8.40;;
59052;SDS011;44843;44.728;10.396;2022-09-09T00:10:25;14.65;;;8.18;;
59052;SDS011;44843;44.728;10.396;2022-09-09T00:12:58;15.43;;;10.18;;
59052;SDS011;44843;44.728;10.396;2022-09-09T00:15:29;13.10;;;7.72;;
59052;SDS011;44843;44.728;10.396;2022-09-09T00:21:15;13.32;;;9.32;;
59052;SDS011;44843;44.728;10.396;2022-09-09T00:23:47;16.10;;;8.35;;
59052;SDS011;44843;44.728;10.396;2022-09-09T00:28:45;11.68;;;7.63;;
59052;SDS011;44843;44.728;10.396;2022-09-09T00:31:23;8.95;;;6.88;;
59052;SDS011;44843;44.728;10.396;2022-09-09T00:33:52;12.23;;;7.57;;
59052;SDS011;44843;44.728;10.396;2022-09-09T00:36:21;10.00;;;6.72;;
59052;SDS011;44843;44.728;10.396;2022-09-09T00:38:56;9.90;;;6.15;;
59052;SDS011;44843;44.728;10.396;2022-09-09T00:41:36;9.35;;;5.57;;
59052;SDS011;44843;44.728;10.396;2022-09-09T00:46:59;6.65;;;4.43;;
59052;SDS011;44843;44.728;10.396;2022-09-09T00:49:56;8.90;;;3.45;;
59052;SDS011;44843;44.728;10.396;2022-09-09T00:55:26;4.47;;;2.95;;
59052;SDS011;44843;44.728;10.396;2022-09-09T00:57:59;6.20;;;3.22;;
59052;SDS011;44843;44.728;10.396;2022-09-09T01:00:31;9.02;;;3.28;;
59052;SDS011;44843;44.728;10.396;2022-09-09T01:06:02;4.30;;;2.40;;
59052;SDS011;44843;44.728;10.396;2022-09-09T01:17:11;6.40;;;1.63;;
59052;SDS011;44843;44.728;10.396;2022-09-09T01:28:28;4.47;;;1.80;;
59052;SDS011;44843;44.728;10.396;2022-09-09T01:30:54;3.33;;;1.85;;
59052;SDS011;44843;44.728;10.396;2022-09-09T01:33:21;2.95;;;1.48;;
59052;SDS011;44843;44.728;10.396;2022-09-09T01:35:55;2.75;;;1.60;;
59052;SDS011;44843;44.728;10.396;2022-09-09T01:38:25;3.63;;;1.58;;
59052;SDS011;44843;44.728;10.396;2022-09-09T01:40:52;4.95;;;1.55;;
59052;SDS011;44843;44.728;10.396;2022-09-09T01:43:22;4.82;;;1.50;;
59052;SDS011;44843;44.728;10.396;2022-09-09T01:45:49;2.33;;;1.40;;
59052;SDS011;44843;44.728;10.396;2022-09-09T01:48:18;4.20;;;2.03;;
59052;SDS011;44843;44.728;10.396;2022-09-09T01:50:44;4.57;;;1.77;;
59052;SDS011;44843;44.728;10.396;2022-09-09T01:53:09;4.72;;;1.80;;
59052;SDS011;44843;44.728;10.396;2022-09-09T01:55:39;3.03;;;1.52;;
59052;SDS011;44843;44.728;10.396;2022-09-09T02:00:56;2.97;;;1.48;;
59052;SDS011;44843;44.728;10.396;2022-09-09T02:03:28;5.70;;;1.60;;
59052;SDS011;44843;44.728;10.396;2022-09-09T02:08:43;1.95;;;1.13;;
59052;SDS011;44843;44.728;10.396;2022-09-09T02:11:13;7.43;;;1.85;;
59052;SDS011;44843;44.728;10.396;2022-09-09T02:13:41;2.00;;;1.13;;
59052;SDS011;44843;44.728;10.396;2022-09-09T02:18:51;3.25;;;1.40;;
59052;SDS011;44843;44.728;10.396;2022-09-09T02:21:20;2.85;;;1.50;;
59052;SDS011;44843;44.728;10.396;2022-09-09T02:23:47;5.65;;;1.70;;
59052;SDS011;44843;44.728;10.396;2022-09-09T02:26:17;3.33;;;1.30;;
59052;SDS011;44843;44.728;10.396;2022-09-09T02:28:47;2.97;;;1.60;;
59052;SDS011;44843;44.728;10.396;2022-09-09T02:31:16;6.47;;;1.73;;
59052;SDS011;44843;44.728;10.396;2022-09-09T02:33:46;4.07;;;1.55;;
59052;SDS011;44843;44.728;10.396;2022-09-09T02:36:17;1.90;;;1.33;;
59052;SDS011;44843;44.728;10.396;2022-09-09T02:38:46;2.83;;;1.75;;
59052;SDS011;44843;44.728;10.396;2022-09-09T02:41:20;4.82;;;2.00;;
59052;SDS011;44843;44.728;10.396;2022-09-09T02:43:51;2.42;;;1.58;;
59052;SDS011;44843;44.728;10.396;2022-09-09T02:46:22;5.03;;;1.20;;
59052;SDS011;44843;44.728;10.396;2022-09-09T02:49:03;1.92;;;1.70;;
59052;SDS011;44843;44.728;10.396;2022-09-09T02:51:51;3.28;;;1.48;;
59052;SDS011;44843;44.728;10.396;2022-09-09T02:54:29;3.85;;;1.63;;
59052;SDS011;44843;44.728;10.396;2022-09-09T02:57:00;4.90;;;1.30;;
59052;SDS011;44843;44.728;10.396;2022-09-09T02:59:27;1.70;;;1.60;;
59052;SDS011;44843;44.728;10.396;2022-09-09T03:01:52;4.30;;;1.33;;
59052;SDS011;44843;44.728;10.396;2022-09-09T03:04:18;3.47;;;1.38;;
59052;SDS011;44843;44.728;10.396;2022-09-09T03:06:44;4.75;;;1.45;;
59052;SDS011;44843;44.728;10.396;2022-09-09T03:09:09;4.00;;;1.70;;
59052;SDS011;44843;44.728;10.396;2022-09-09T03:11:36;2.88;;;1.35;;
59052;SDS011;44843;44.728;10.396;2022-09-09T03:14:02;1.55;;;1.27;;
59052;SDS011;44843;44.728;10.396;2022-09-09T03:16:27;2.55;;;1.63;;
59052;SDS011;44843;44.728;10.396;2022-09-09T03:18:53;3.55;;;1.30;;
59052;SDS011;44843;44.728;10.396;2022-09-09T03:21:18;2.88;;;1.50;;
59052;SDS011;44843;44.728;10.396;2022-09-09T03:23:43;4.82;;;1.48;;
59052;SDS011;44843;44.728;10.396;2022-09-09T03:26:10;2.75;;;1.35;;
59052;SDS011;44843;44.728;10.396;2022-09-09T03:28:35;2.22;;;1.30;;
59052;SDS011;44843;44.728;10.396;2022-09-09T03:31:01;3.40;;;1.30;;
59052;SDS011;44843;44.728;10.396;2022-09-09T03:33:28;2.63;;;1.40;;
59052;SDS011;44843;44.728;10.396;2022-09-09T03:35:54;4.60;;;1.42;;
59052;SDS011;44843;44.728;10.396;2022-09-09T03:38:22;3.95;;;1.60;;
59052;SDS011;44843;44.728;10.396;2022-09-09T03:40:49;4.82;;;1.40;;
59052;SDS011;44843;44.728;10.396;2022-09-09T03:43:16;3.45;;;1.75;;
59052;SDS011;44843;44.728;10.396;2022-09-09T03:45:44;4.35;;;1.50;;
59052;SDS011;44843;44.728;10.396;2022-09-09T03:48:12;2.55;;;1.92;;
59052;SDS011;44843;44.728;10.396;2022-09-09T03:50:39;4.35;;;1.48;;
59052;SDS011;44843;44.728;10.396;2022-09-09T03:53:09;3.45;;;1.70;;
59052;SDS011;44843;44.728;10.396;2022-09-09T03:55:34;3.50;;;1.67;;
59052;SDS011;44843;44.728;10.396;2022-09-09T03:58:00;3.65;;;1.90;;
59052;SDS011;44843;44.728;10.396;2022-09-09T04:00:25;3.85;;;1.77;;
59052;SDS011;44843;44.728;10.396;2022-09-09T04:02:51;4.47;;;1.92;;
59052;SDS011;44843;44.728;10.396;2022-09-09T04:05:19;7.03;;;2.10;;
59052;SDS011;44843;44.728;10.396;2022-09-09T04:07:44;5.28;;;1.80;;
59052;SDS011;44843;44.728;10.396;2022-09-09T04:10:09;3.47;;;2.30;;
59052;SDS011;44843;44.728;10.396;2022-09-09T04:12:35;6.03;;;1.80;;
59052;SDS011;44843;44.728;10.396;2022-09-09T04:15:00;4.22;;;2.00;;
59052;SDS011;44843;44.728;10.396;2022-09-09T04:17:27;5.13;;;2.08;;
59052;SDS011;44843;44.728;10.396;2022-09-09T04:19:53;3.80;;;2.00;;
59052;SDS011;44843;44.728;10.396;2022-09-09T04:22:18;2.05;;;1.60;;
59052;SDS011;44843;44.728;10.396;2022-09-09T04:24:44;4.13;;;1.73;;
59052;SDS011;44843;44.728;10.396;2022-09-09T04:27:09;5.10;;;1.92;;
59052;SDS011;44843;44.728;10.396;2022-09-09T04:29:34;2.17;;;1.50;;
59052;SDS011;44843;44.728;10.396;2022-09-09T04:32:00;4.03;;;1.70;;
59052;SDS011;44843;44.728;10.396;2022-09-09T04:34:25;4.72;;;1.52;;
59052;SDS011;44843;44.728;10.396;2022-09-09T04:36:51;2.47;;;1.55;;
59052;SDS011;44843;44.728;10.396;2022-09-09T04:39:19;3.72;;;1.65;;
59052;SDS011;44843;44.728;10.396;2022-09-09T04:41:45;2.75;;;1.60;;
59052;SDS011;44843;44.728;10.396;2022-09-09T04:44:10;4.38;;;2.00;;
59052;SDS011;44843;44.728;10.396;2022-09-09T04:46:36;2.58;;;1.40;;
59052;SDS011;44843;44.728;10.396;2022-09-09T04:49:01;5.22;;;1.63;;
59052;SDS011;44843;44.728;10.396;2022-09-09T04:51:27;7.90;;;2.55;;
59052;SDS011;44843;44.728;10.396;2022-09-09T04:53:53;2.13;;;1.20;;
59052;SDS011;44843;44.728;10.396;2022-09-09T04:56:19;2.25;;;1.60;;
59052;SDS011;44843;44.728;10.396;2022-09-09T04:58:45;3.42;;;1.63;;
59052;SDS011;44843;44.728;10.396;2022-09-09T05:01:14;2.33;;;1.10;;
59052;SDS011;44843;44.728;10.396;2022-09-09T05:03:45;2.67;;;1.50;;
59052;SDS011;44843;44.728;10.396;2022-09-09T05:06:12;1.95;;;1.55;;
59052;SDS011;44843;44.728;10.396;2022-09-09T05:08:44;2.85;;;1.50;;
59052;SDS011;44843;44.728;10.396;2022-09-09T05:11:13;4.35;;;1.50;;
59052;SDS011;44843;44.728;10.396;2022-09-09T05:13:43;2.92;;;1.30;;
59052;SDS011;44843;44.728;10.396;2022-09-09T05:16:09;4.78;;;1.20;;
59052;SDS011;44843;44.728;10.396;2022-09-09T05:18:36;6.57;;;1.48;;
59052;SDS011;44843;44.728;10.396;2022-09-09T05:21:04;4.38;;;1.38;;
59052;SDS011;44843;44.728;10.396;2022-09-09T05:23:31;5.25;;;1.42;;
59052;SDS011;44843;44.728;10.396;2022-09-09T05:25:58;5.88;;;1.38;;
59052;SDS011;44843;44.728;10.396;2022-09-09T05:28:26;3.08;;;1.33;;
59052;SDS011;44843;44.728;10.396;2022-09-09T05:30:59;2.55;;;1.20;;
59052;SDS011;44843;44.728;10.396;2022-09-09T05:33:30;4.75;;;1.33;;
59052;SDS011;44843;44.728;10.396;2022-09-09T05:36:04;7.70;;;1.40;;
59052;SDS011;44843;44.728;10.396;2022-09-09T05:38:32;2.83;;;2.08;;
59052;SDS011;44843;44.728;10.396;2022-09-09T05:40:59;2.90;;;1.58;;
59052;SDS011;44843;44.728;10.396;2022-09-09T05:43:26;3.58;;;1.60;;
59052;SDS011;44843;44.728;10.396;2022-09-09T05:45:59;3.85;;;1.45;;
59052;SDS011;44843;44.728;10.396;2022-09-09T05:48:35;6.47;;;1.75;;
59052;SDS011;44843;44.728;10.396;2022-09-09T05:51:02;3.45;;;1.50;;
59052;SDS011;44843;44.728;10.396;2022-09-09T05:53:29;4.95;;;1.42;;
59052;SDS011;44843;44.728;10.396;2022-09-09T05:56:02;5.40;;;2.08;;
59052;SDS011;44843;44.728;10.396;2022-09-09T05:58:33;6.88;;;2.72;;
59052;SDS011;44843;44.728;10.396;2022-09-09T06:03:31;5.22;;;1.67;;
59052;SDS011;44843;44.728;10.396;2022-09-09T06:06:01;4.18;;;1.90;;
59052;SDS011;44843;44.728;10.396;2022-09-09T06:08:30;5.20;;;1.80;;
59052;SDS011;44843;44.728;10.396;2022-09-09T06:11:03;2.22;;;1.40;;
59052;SDS011;44843;44.728;10.396;2022-09-09T06:13:30;5.82;;;1.83;;
59052;SDS011;44843;44.728;10.396;2022-09-09T06:15:56;4.15;;;1.58;;
59052;SDS011;44843;44.728;10.396;2022-09-09T06:18:21;3.80;;;1.50;;
59052;SDS011;44843;44.728;10.396;2022-09-09T06:20:56;7.13;;;1.70;;
59052;SDS011;44843;44.728;10.396;2022-09-09T06:23:23;8.05;;;1.52;;
59052;SDS011;44843;44.728;10.396;2022-09-09T06:25:50;8.27;;;2.00;;
59052;SDS011;44843;44.728;10.396;2022-09-09T06:28:16;4.82;;;1.48;;
59052;SDS011;44843;44.728;10.396;2022-09-09T06:30:42;3.67;;;1.67;;
59052;SDS011;44843;44.728;10.396;2022-09-09T06:33:09;5.45;;;2.58;;
59052;SDS011;44843;44.728;10.396;2022-09-09T06:35:35;4.90;;;1.35;;
59052;SDS011;44843;44.728;10.396;2022-09-09T06:38:00;3.90;;;1.70;;
59052;SDS011;44843;44.728;10.396;2022-09-09T06:40:26;9.68;;;2.20;;
59052;SDS011;44843;44.728;10.396;2022-09-09T06:42:51;10.88;;;1.95;;
59052;SDS011;44843;44.728;10.396;2022-09-09T06:45:17;5.65;;;1.83;;
59052;SDS011;44843;44.728;10.396;2022-09-09T06:47:42;4.10;;;1.65;;
59052;SDS011;44843;44.728;10.396;2022-09-09T06:50:08;3.72;;;1.70;;
59052;SDS011;44843;44.728;10.396;2022-09-09T06:52:35;8.10;;;2.00;;
59052;SDS011;44843;44.728;10.396;2022-09-09T06:55:00;5.75;;;1.90;;
59052;SDS011;44843;44.728;10.396;2022-09-09T06:57:26;4.30;;;1.90;;
59052;SDS011;44843;44.728;10.396;2022-09-09T06:59:51;5.78;;;2.75;;
59052;SDS011;44843;44.728;10.396;2022-09-09T07:02:17;7.95;;;2.38;;
59052;SDS011;44843;44.728;10.396;2022-09-09T07:04:42;3.78;;;2.05;;
59052;SDS011;44843;44.728;10.396;2022-09-09T07:07:08;7.18;;;3.15;;
59052;SDS011;44843;44.728;10.396;2022-09-09T07:09:34;6.15;;;3.20;;
59052;SDS011;44843;44.728;10.396;2022-09-09T07:12:00;7.25;;;3.38;;
59052;SDS011;44843;44.728;10.396;2022-09-09T07:14:25;6.05;;;3.35;;
59052;SDS011;44843;44.728;10.396;2022-09-09T07:16:52;9.10;;;5.03;;
59052;SDS011;44843;44.728;10.396;2022-09-09T07:19:17;9.75;;;5.43;;
59052;SDS011;44843;44.728;10.396;2022-09-09T07:21:43;6.32;;;4.45;;
59052;SDS011;44843;44.728;10.396;2022-09-09T07:24:08;14.75;;;6.32;;
59052;SDS011;44843;44.728;10.396;2022-09-09T07:26:35;10.98;;;5.10;;
59052;SDS011;44843;44.728;10.396;2022-09-09T07:29:02;8.13;;;4.72;;
59052;SDS011;44843;44.728;10.396;2022-09-09T07:31:32;11.20;;;6.40;;
59052;SDS011;44843;44.728;10.396;2022-09-09T07:33:59;17.30;;;6.45;;
59052;SDS011;44843;44.728;10.396;2022-09-09T07:36:29;14.02;;;7.20;;
59052;SDS011;44843;44.728;10.396;2022-09-09T07:38:59;15.05;;;8.18;;
59052;SDS011;44843;44.728;10.396;2022-09-09T07:41:27;17.05;;;8.82;;
59052;SDS011;44843;44.728;10.396;2022-09-09T07:43:57;17.98;;;8.73;;
59052;SDS011;44843;44.728;10.396;2022-09-09T07:46:24;16.70;;;10.50;;
59052;SDS011;44843;44.728;10.396;2022-09-09T07:48:52;17.17;;;10.75;;
59052;SDS011;44843;44.728;10.396;2022-09-09T07:51:21;18.98;;;11.23;;
59052;SDS011;44843;44.728;10.396;2022-09-09T07:53:51;22.15;;;11.57;;
59052;SDS011;44843;44.728;10.396;2022-09-09T07:56:19;25.42;;;12.77;;
59052;SDS011;44843;44.728;10.396;2022-09-09T07:58:47;25.42;;;13.50;;
59052;SDS011;44843;44.728;10.396;2022-09-09T08:01:17;26.67;;;14.13;;
59052;SDS011;44843;44.728;10.396;2022-09-09T08:03:45;21.95;;;13.27;;
59052;SDS011;44843;44.728;10.396;2022-09-09T08:06:12;23.80;;;13.63;;
59052;SDS011;44843;44.728;10.396;2022-09-09T08:08:38;26.35;;;14.23;;
59052;SDS011;44843;44.728;10.396;2022-09-09T08:11:10;19.73;;;13.00;;
59052;SDS011;44843;44.728;10.396;2022-09-09T08:13:38;24.67;;;13.65;;
59052;SDS011;44843;44.728;10.396;2022-09-09T08:16:11;20.92;;;13.10;;
59052;SDS011;44843;44.728;10.396;2022-09-09T08:18:38;24.00;;;15.18;;
59052;SDS011;44843;44.728;10.396;2022-09-09T08:21:08;21.98;;;14.75;;
59052;SDS011;44843;44.728;10.396;2022-09-09T08:23:39;27.67;;;15.45;;
59052;SDS011;44843;44.728;10.396;2022-09-09T08:26:13;24.40;;;14.25;;
59052;SDS011;44843;44.728;10.396;2022-09-09T08:28:39;26.42;;;14.63;;
59052;SDS011;44843;44.728;10.396;2022-09-09T08:31:06;25.85;;;15.98;;
59052;SDS011;44843;44.728;10.396;2022-09-09T08:33:37;27.85;;;15.82;;
59052;SDS011;44843;44.728;10.396;2022-09-09T08:36:03;23.42;;;14.07;;
59052;SDS011;44843;44.728;10.396;2022-09-09T08:38:29;26.65;;;15.88;;
59052;SDS011;44843;44.728;10.396;2022-09-09T08:40:56;26.40;;;15.05;;
59052;SDS011;44843;44.728;10.396;2022-09-09T08:43:32;29.75;;;15.48;;
59052;SDS011;44843;44.728;10.396;2022-09-09T08:46:16;26.27;;;14.77;;
59052;SDS011;44843;44.728;10.396;2022-09-09T08:49:00;28.00;;;15.43;;
59052;SDS011;44843;44.728;10.396;2022-09-09T08:51:31;25.30;;;15.45;;
59052;SDS011;44843;44.728;10.396;2022-09-09T08:53:58;26.90;;;15.68;;
59052;SDS011;44843;44.728;10.396;2022-09-09T08:56:27;26.38;;;15.35;;
59052;SDS011;44843;44.728;10.396;2022-09-09T08:58:56;26.58;;;15.32;;
59052;SDS011;44843;44.728;10.396;2022-09-09T09:07:21;24.95;;;14.30;;
59052;SDS011;44843;44.728;10.396;2022-09-09T09:10:00;26.67;;;15.55;;
59052;SDS011;44843;44.728;10.396;2022-09-09T09:12:46;23.25;;;14.98;;
59052;SDS011;44843;44.728;10.396;2022-09-09T09:15:23;27.65;;;16.05;;
59052;SDS011;44843;44.728;10.396;2022-09-09T09:17:51;27.92;;;16.23;;
59052;SDS011;44843;44.728;10.396;2022-09-09T09:20:18;25.67;;;15.60;;
59052;SDS011;44843;44.728;10.396;2022-09-09T09:22:53;27.60;;;16.13;;
59052;SDS011;44843;44.728;10.396;2022-09-09T09:25:30;31.25;;;17.45;;
59052;SDS011;44843;44.728;10.396;2022-09-09T09:28:00;29.58;;;17.38;;
59052;SDS011;44843;44.728;10.396;2022-09-09T09:30:44;32.25;;;17.27;;
59052;SDS011;44843;44.728;10.396;2022-09-09T09:33:18;28.75;;;15.75;;
59052;SDS011;44843;44.728;10.396;2022-09-09T09:35:51;26.30;;;17.35;;
59052;SDS011;44843;44.728;10.396;2022-09-09T09:38:23;28.23;;;17.30;;
59052;SDS011;44843;44.728;10.396;2022-09-09T09:40:56;26.58;;;15.40;;
59052;SDS011;44843;44.728;10.396;2022-09-09T09:43:24;30.15;;;16.38;;
59052;SDS011;44843;44.728;10.396;2022-09-09T09:45:58;29.05;;;15.60;;
59052;SDS011;44843;44.728;10.396;2022-09-09T09:48:24;32.42;;;15.18;;
59052;SDS011;44843;44.728;10.396;2022-09-09T09:50:55;28.35;;;15.82;;
59052;SDS011;44843;44.728;10.396;2022-09-09T09:53:41;23.90;;;12.88;;
59052;SDS011;44843;44.728;10.396;2022-09-09T09:56:08;27.60;;;13.75;;
59052;SDS011;44843;44.728;10.396;2022-09-09T10:01:25;24.10;;;14.07;;
59052;SDS011;44843;44.728;10.396;2022-09-09T10:04:00;24.80;;;12.70;;
59052;SDS011;44843;44.728;10.396;2022-09-09T10:08:58;24.08;;;11.45;;
59052;SDS011;44843;44.728;10.396;2022-09-09T10:11:37;18.48;;;11.73;;
59052;SDS011;44843;44.728;10.396;2022-09-09T10:14:21;22.35;;;12.40;;
59052;SDS011;44843;44.728;10.396;2022-09-09T10:19:55;18.48;;;10.63;;
59052;SDS011;44843;44.728;10.396;2022-09-09T10:22:44;24.30;;;11.32;;
59052;SDS011;44843;44.728;10.396;2022-09-09T10:33:23;17.10;;;9.05;;
59052;SDS011;44843;44.728;10.396;2022-09-09T10:36:13;16.20;;;8.43;;
59052;SDS011;44843;44.728;10.396;2022-09-09T10:38:46;14.52;;;7.75;;
59052;SDS011;44843;44.728;10.396;2022-09-09T10:41:34;16.38;;;8.13;;
59052;SDS011;44843;44.728;10.396;2022-09-09T10:47:17;19.42;;;9.15;;
59052;SDS011;44843;44.728;10.396;2022-09-09T10:52:38;13.15;;;6.35;;
59052;SDS011;44843;44.728;10.396;2022-09-09T10:55:13;17.85;;;7.68;;
59052;SDS011;44843;44.728;10.396;2022-09-09T10:57:47;21.17;;;10.32;;
59052;SDS011;44843;44.728;10.396;2022-09-09T11:00:15;19.38;;;9.50;;
59052;SDS011;44843;44.728;10.396;2022-09-09T11:02:52;15.83;;;9.27;;
59052;SDS011;44843;44.728;10.396;2022-09-09T11:13:52;16.98;;;7.55;;
59052;SDS011;44843;44.728;10.396;2022-09-09T11:16:29;10.45;;;6.75;;
59052;SDS011;44843;44.728;10.396;2022-09-09T11:19:21;11.90;;;6.15;;
59052;SDS011;44843;44.728;10.396;2022-09-09T11:21:53;15.90;;;7.18;;
59052;SDS011;44843;44.728;10.396;2022-09-09T11:26:51;12.45;;;5.53;;
59052;SDS011;44843;44.728;10.396;2022-09-09T11:34:36;8.20;;;4.20;;
59052;SDS011;44843;44.728;10.396;2022-09-09T11:42:33;6.55;;;4.15;;
59052;SDS011;44843;44.728;10.396;2022-09-09T11:45:08;11.38;;;5.00;;
59052;SDS011;44843;44.728;10.396;2022-09-09T11:52:37;10.77;;;3.80;;
59052;SDS011;44843;44.728;10.396;2022-09-09T11:57:38;5.68;;;2.78;;
59052;SDS011;44843;44.728;10.396;2022-09-09T12:00:04;5.40;;;2.83;;
59052;SDS011;44843;44.728;10.396;2022-09-09T12:02:30;6.43;;;3.20;;
59052;SDS011;44843;44.728;10.396;2022-09-09T12:05:09;5.55;;;2.92;;
59052;SDS011;44843;44.728;10.396;2022-09-09T12:07:40;7.88;;;4.25;;
59052;SDS011;44843;44.728;10.396;2022-09-09T12:12:52;7.57;;;2.55;;
59052;SDS011;44843;44.728;10.396;2022-09-09T12:15:19;4.20;;;2.55;;
59052;SDS011;44843;44.728;10.396;2022-09-09T12:17:54;6.88;;;3.28;;
59052;SDS011;44843;44.728;10.396;2022-09-09T12:20:23;6.30;;;2.78;;
59052;SDS011;44843;44.728;10.396;2022-09-09T12:28:50;6.63;;;2.40;;
59052;SDS011;44843;44.728;10.396;2022-09-09T12:34:34;5.90;;;2.58;;
59052;SDS011;44843;44.728;10.396;2022-09-09T12:37:21;5.78;;;2.42;;
59052;SDS011;44843;44.728;10.396;2022-09-09T12:39:56;4.97;;;1.83;;
59052;SDS011;44843;44.728;10.396;2022-09-09T12:42:24;5.75;;;2.70;;
59052;SDS011;44843;44.728;10.396;2022-09-09T12:44:54;3.92;;;2.47;;
59052;SDS011;44843;44.728;10.396;2022-09-09T12:47:23;3.55;;;2.00;;
59052;SDS011;44843;44.728;10.396;2022-09-09T12:49:59;7.07;;;2.17;;
59052;SDS011;44843;44.728;10.396;2022-09-09T12:52:31;6.05;;;2.30;;
59052;SDS011;44843;44.728;10.396;2022-09-09T12:55:02;3.80;;;2.22;;
59052;SDS011;44843;44.728;10.396;2022-09-09T12:57:33;6.50;;;2.22;;
59052;SDS011;44843;44.728;10.396;2022-09-09T13:00:07;6.97;;;2.22;;
59052;SDS011;44843;44.728;10.396;2022-09-09T13:02:45;3.22;;;2.15;;
59052;SDS011;44843;44.728;10.396;2022-09-09T13:05:25;4.18;;;2.50;;
59052;SDS011;44843;44.728;10.396;2022-09-09T13:08:03;4.40;;;2.30;;
59052;SDS011;44843;44.728;10.396;2022-09-09T13:10:32;5.95;;;2.30;;
59052;SDS011;44843;44.728;10.396;2022-09-09T13:13:01;6.60;;;2.72;;
59052;SDS011;44843;44.728;10.396;2022-09-09T13:15:27;6.72;;;3.35;;
59052;SDS011;44843;44.728;10.396;2022-09-09T13:17:57;9.45;;;3.63;;
59052;SDS011;44843;44.728;10.396;2022-09-09T13:20:26;6.45;;;2.60;;
59052;SDS011;44843;44.728;10.396;2022-09-09T13:22:53;4.93;;;2.17;;
59052;SDS011;44843;44.728;10.396;2022-09-09T13:25:24;5.05;;;2.20;;
59052;SDS011;44843;44.728;10.396;2022-09-09T13:28:36;3.55;;;2.40;;
59052;SDS011;44843;44.728;10.396;2022-09-09T13:30:55;3.05;;;2.40;;
59052;SDS011;44843;44.728;10.396;2022-09-09T13:33:28;4.18;;;2.20;;
59052;SDS011;44843;44.728;10.396;2022-09-09T13:36:06;4.43;;;2.03;;
59052;SDS011;44843;44.728;10.396;2022-09-09T13:38:38;4.25;;;2.65;;
59052;SDS011;44843;44.728;10.396;2022-09-09T13:41:36;4.75;;;2.20;;
59052;SDS011;44843;44.728;10.396;2022-09-09T13:44:14;6.43;;;2.33;;
59052;SDS011;44843;44.728;10.396;2022-09-09T13:46:45;4.95;;;2.25;;
59052;SDS011;44843;44.728;10.396;2022-09-09T13:51:40;6.35;;;2.40;;
59052;SDS011;44843;44.728;10.396;2022-09-09T13:54:11;6.15;;;2.20;;
59052;SDS011;44843;44.728;10.396;2022-09-09T13:56:38;6.82;;;2.10;;
59052;SDS011;44843;44.728;10.396;2022-09-09T13:59:05;3.40;;;2.13;;
59052;SDS011;44843;44.728;10.396;2022-09-09T14:01:34;4.53;;;2.00;;
59052;SDS011;44843;44.728;10.396;2022-09-09T14:04:00;6.18;;;2.40;;
59052;SDS011;44843;44.728;10.396;2022-09-09T14:06:25;5.45;;;2.42;;
59052;SDS011;44843;44.728;10.396;2022-09-09T14:08:51;6.00;;;2.33;;
59052;SDS011;44843;44.728;10.396;2022-09-09T14:11:17;5.45;;;2.40;;
59052;SDS011;44843;44.728;10.396;2022-09-09T14:13:43;11.15;;;3.00;;
59052;SDS011;44843;44.728;10.396;2022-09-09T14:16:08;3.97;;;2.40;;
59052;SDS011;44843;44.728;10.396;2022-09-09T14:18:34;6.85;;;2.05;;
59052;SDS011;44843;44.728;10.396;2022-09-09T14:21:00;6.82;;;2.15;;
59052;SDS011;44843;44.728;10.396;2022-09-09T14:23:27;4.93;;;2.08;;
59052;SDS011;44843;44.728;10.396;2022-09-09T14:25:54;4.00;;;2.30;;
59052;SDS011;44843;44.728;10.396;2022-09-09T14:28:20;4.47;;;2.22;;
59052;SDS011;44843;44.728;10.396;2022-09-09T14:30:46;3.72;;;1.77;;
59052;SDS011;44843;44.728;10.396;2022-09-09T14:33:12;3.80;;;2.05;;
59052;SDS011;44843;44.728;10.396;2022-09-09T14:35:40;4.63;;;2.20;;
59052;SDS011;44843;44.728;10.396;2022-09-09T14:38:06;5.65;;;2.38;;
59052;SDS011;44843;44.728;10.396;2022-09-09T14:40:34;4.47;;;2.40;;
59052;SDS011;44843;44.728;10.396;2022-09-09T14:43:03;5.00;;;2.28;;
59052;SDS011;44843;44.728;10.396;2022-09-09T14:45:29;5.10;;;2.13;;
59052;SDS011;44843;44.728;10.396;2022-09-09T14:47:55;6.55;;;2.00;;
59052;SDS011;44843;44.728;10.396;2022-09-09T14:50:21;7.40;;;3.42;;
59052;SDS011;44843;44.728;10.396;2022-09-09T14:52:47;6.28;;;2.83;;
59052;SDS011;44843;44.728;10.396;2022-09-09T14:55:13;4.80;;;2.88;;
59052;SDS011;44843;44.728;10.396;2022-09-09T14:57:39;4.88;;;2.70;;
59052;SDS011;44843;44.728;10.396;2022-09-09T15:00:05;8.75;;;2.40;;
59052;SDS011;44843;44.728;10.396;2022-09-09T15:02:32;7.00;;;2.10;;
59052;SDS011;44843;44.728;10.396;2022-09-09T15:04:57;2.60;;;1.95;;
59052;SDS011;44843;44.728;10.396;2022-09-09T15:07:23;4.35;;;2.05;;
59052;SDS011;44843;44.728;10.396;2022-09-09T15:09:50;6.07;;;2.03;;
59052;SDS011;44843;44.728;10.396;2022-09-09T15:12:15;7.82;;;2.55;;
59052;SDS011;44843;44.728;10.396;2022-09-09T15:14:43;8.15;;;2.50;;
59052;SDS011;44843;44.728;10.396;2022-09-09T15:17:09;3.55;;;2.80;;
59052;SDS011;44843;44.728;10.396;2022-09-09T15:19:35;7.13;;;1.98;;
59052;SDS011;44843;44.728;10.396;2022-09-09T15:22:01;4.95;;;1.85;;
59052;SDS011;44843;44.728;10.396;2022-09-09T15:24:26;5.70;;;2.17;;
59052;SDS011;44843;44.728;10.396;2022-09-09T15:26:52;4.57;;;2.33;;
59052;SDS011;44843;44.728;10.396;2022-09-09T15:29:18;7.13;;;2.00;;
59052;SDS011;44843;44.728;10.396;2022-09-09T15:31:44;5.30;;;2.35;;
59052;SDS011;44843;44.728;10.396;2022-09-09T15:34:09;8.75;;;2.22;;
59052;SDS011;44843;44.728;10.396;2022-09-09T15:36:36;4.45;;;2.38;;
59052;SDS011;44843;44.728;10.396;2022-09-09T15:39:06;3.92;;;3.20;;
59052;SDS011;44843;44.728;10.396;2022-09-09T15:41:34;6.82;;;2.55;;
59052;SDS011;44843;44.728;10.396;2022-09-09T15:44:00;4.07;;;2.35;;
59052;SDS011;44843;44.728;10.396;2022-09-09T15:49:18;6.88;;;3.10;;
59052;SDS011;44843;44.728;10.396;2022-09-09T15:51:51;5.32;;;3.20;;
59052;SDS011;44843;44.728;10.396;2022-09-09T15:54:19;8.65;;;3.40;;
59052;SDS011;44843;44.728;10.396;2022-09-09T15:56:49;5.03;;;3.58;;
59052;SDS011;44843;44.728;10.396;2022-09-09T15:59:16;9.30;;;3.17;;
59052;SDS011;44843;44.728;10.396;2022-09-09T16:01:42;6.28;;;2.90;;
59052;SDS011;44843;44.728;10.396;2022-09-09T16:04:08;7.47;;;3.03;;
59052;SDS011;44843;44.728;10.396;2022-09-09T16:06:33;7.15;;;3.00;;
59052;SDS011;44843;44.728;10.396;2022-09-09T16:08:59;7.25;;;3.28;;
59052;SDS011;44843;44.728;10.396;2022-09-09T16:11:29;5.93;;;3.10;;
59052;SDS011;44843;44.728;10.396;2022-09-09T16:14:00;7.43;;;2.90;;
59052;SDS011;44843;44.728;10.396;2022-09-09T16:16:27;5.05;;;2.78;;
59052;SDS011;44843;44.728;10.396;2022-09-09T16:18:57;11.07;;;3.88;;
59052;SDS011;44843;44.728;10.396;2022-09-09T16:21:25;5.50;;;2.95;;
59052;SDS011;44843;44.728;10.396;2022-09-09T16:23:54;4.68;;;3.03;;
59052;SDS011;44843;44.728;10.396;2022-09-09T16:26:19;5.82;;;3.22;;
59052;SDS011;44843;44.728;10.396;2022-09-09T16:28:45;9.18;;;3.80;;
59052;SDS011;44843;44.728;10.396;2022-09-09T16:31:13;7.30;;;2.88;;
59052;SDS011;44843;44.728;10.396;2022-09-09T16:33:42;10.88;;;3.60;;
59052;SDS011;44843;44.728;10.396;2022-09-09T16:36:08;9.48;;;3.50;;
59052;SDS011;44843;44.728;10.396;2022-09-09T16:38:35;10.52;;;3.92;;
59052;SDS011;44843;44.728;10.396;2022-09-09T16:41:02;4.55;;;2.58;;
59052;SDS011;44843;44.728;10.396;2022-09-09T16:43:30;7.57;;;2.97;;